Time;durP1;ratioP1;P1;durP2;ratioP2;P2;SDS_P1;SDS_P2;PMS_P1;PMS_P2;Temp;Humidity;BMP_temperature;BMP_pressure;BME280_temperature;BME280_humidity;BME280_pressure;Samples;Min_cycle;Max_cycle;Signal;HPM_P1;HPM_P2
2022/08/08 00:00:21;;;;;;;5.67;4.47;;;;;;;15.94;75.20;94385.38;5005219;28;20204;-67
2022/08/08 00:03:19;;;;;;;4.63;3.83;;;;;;;15.97;75.02;94384.88;5013110;28;20199;-67
2022/08/08 00:06:53;;;;;;;4.77;4.23;;;;;;;16.04;74.00;94380.31;5012487;28;20228;-67
2022/08/08 00:09:50;;;;;;;4.27;3.87;;;;;;;16.06;73.74;94377.59;4959262;28;20201;-67
2022/08/08 00:12:54;;;;;;;4.30;3.90;;;;;;;16.00;74.42;94382.91;4971280;28;20213;-67
2022/08/08 00:15:54;;;;;;;4.60;4.20;;;;;;;15.92;75.26;94385.25;5005185;28;20188;-67
2022/08/08 00:19:10;;;;;;;5.43;4.30;;;;;;;15.91;74.88;94380.97;5001964;28;20677;-67
2022/08/08 00:22:11;;;;;;;4.10;3.70;;;;;;;15.94;74.37;94374.78;5012502;28;20200;-67
2022/08/08 00:25:02;;;;;;;4.53;4.13;;;;;;;15.91;74.38;94380.97;5010302;28;20986;-67
2022/08/08 00:27:50;;;;;;;8.13;3.97;;;;;;;15.92;74.08;94379.63;5013821;28;20210;-67
2022/08/08 00:30:39;;;;;;;4.27;3.83;;;;;;;15.95;73.67;94381.19;4998891;28;20208;-67
2022/08/08 00:33:30;;;;;;;6.23;4.03;;;;;;;15.98;73.22;94382.78;5011312;28;20540;-67
2022/08/08 00:36:25;;;;;;;4.53;4.03;;;;;;;16.05;72.88;94378.94;4999280;28;20203;-66
2022/08/08 00:39:15;;;;;;;4.63;4.23;;;;;;;16.06;72.58;94374.75;5017374;28;20200;-67
2022/08/08 00:42:41;;;;;;;4.67;4.27;;;;;;;15.98;72.81;94375.06;4999274;28;20694;-67
2022/08/08 00:45:51;;;;;;;6.17;3.67;;;;;;;15.91;73.85;94380.97;5006768;28;20646;-67
2022/08/08 00:49:10;;;;;;;4.20;3.57;;;;;;;15.51;75.20;94379.97;5001989;28;20294;-67
2022/08/08 00:52:12;;;;;;;6.03;3.77;;;;;;;15.39;76.24;94385.63;4997943;28;20207;-67
2022/08/08 00:55:17;;;;;;;4.23;3.83;;;;;;;15.38;76.03;94378.50;5002649;28;20187;-67
2022/08/08 00:58:17;;;;;;;7.37;3.80;;;;;;;15.25;76.08;94375.56;5010330;28;20200;-67
2022/08/08 01:01:31;;;;;;;5.93;3.20;;;;;;;15.36;75.54;94372.03;4995229;28;20208;-67
2022/08/08 01:04:51;;;;;;;4.40;4.00;;;;;;;15.35;75.58;94381.84;5008118;28;20756;-67
2022/08/08 01:07:43;;;;;;;3.70;3.50;;;;;;;15.23;75.89;94381.09;5000571;28;20199;-67
2022/08/08 01:10:56;;;;;;;7.13;3.63;;;;;;;15.16;76.13;94374.34;4993879;28;20203;-67
2022/08/08 01:14:06;;;;;;;4.93;3.83;;;;;;;15.26;75.21;94377.78;5001737;28;20215;-66
2022/08/08 01:16:50;;;;;;;5.70;3.90;;;;;;;15.39;74.55;94373.59;5010599;28;20227;-66
2022/08/08 01:20:00;;;;;;;4.60;3.97;;;;;;;15.32;75.14;94374.59;4996046;28;20200;-67
2022/08/08 01:22:47;;;;;;;3.87;3.57;;;;;;;15.30;75.40;94377.31;5000543;28;20283;-67
2022/08/08 01:25:57;;;;;;;8.00;3.57;;;;;;;15.33;75.10;94376.06;4998351;28;20251;-67
2022/08/08 01:29:28;;;;;;;6.30;4.07;;;;;;;15.41;73.94;94375.81;4998112;28;20200;-67
2022/08/08 01:32:34;;;;;;;5.93;3.43;;;;;;;15.29;74.42;94370.91;5001355;28;20254;-67
2022/08/08 01:35:37;;;;;;;3.70;3.40;;;;;;;15.29;74.75;94381.47;4997281;28;20224;-67
2022/08/08 01:39:02;;;;;;;3.57;3.20;;;;;;;15.29;74.36;94370.19;5011222;28;20210;-66
2022/08/08 01:41:58;;;;;;;3.43;3.13;;;;;;;15.47;73.27;94373.38;5002700;28;20704;-66
2022/08/08 01:45:02;;;;;;;5.37;3.40;;;;;;;15.50;72.68;94381.31;4998129;28;20200;-67
2022/08/08 01:48:15;;;;;;;5.07;3.70;;;;;;;15.52;72.48;94375.84;5003464;28;20661;-66
2022/08/08 01:51:21;;;;;;;4.90;3.40;;;;;;;15.34;74.16;94369.06;5003227;28;20200;-66
2022/08/08 01:54:11;;;;;;;4.70;3.77;;;;;;;15.42;73.04;94372.38;5006796;28;20200;-66
2022/08/08 01:57:26;;;;;;;6.23;3.20;;;;;;;15.40;72.87;94363.78;4992480;28;20201;-67
2022/08/08 02:00:32;;;;;;;3.93;3.33;;;;;;;15.41;72.21;94370.91;4995995;28;20207;-67
2022/08/08 02:03:32;;;;;;;3.80;3.13;;;;;;;15.41;72.18;94370.91;4999411;28;20211;-66
2022/08/08 02:06:54;;;;;;;6.63;3.57;;;;;;;15.51;71.20;94379.25;4996436;28;20228;-66
2022/08/08 02:10:02;;;;;;;3.77;3.37;;;;;;;15.12;73.18;94376.91;5004677;28;20203;-67
2022/08/08 02:12:52;;;;;;;5.27;3.73;;;;;;;14.91;74.01;94372.09;4990307;28;20204;-67
2022/08/08 02:15:56;;;;;;;4.13;2.90;;;;;;;14.98;73.35;94373.97;5005201;28;20227;-67
2022/08/08 02:19:11;;;;;;;7.07;4.07;;;;;;;15.27;72.06;94370.78;5004458;28;20204;-67
2022/08/08 02:25:47;;;;;;;3.70;3.40;;;;;;;15.06;72.37;94378.63;4993055;28;20240;-66
2022/08/08 02:28:51;;;;;;;6.50;3.40;;;;;;;15.05;72.24;94379.97;4997979;28;20204;-67
2022/08/08 02:32:12;;;;;;;3.83;3.20;;;;;;;15.12;71.59;94374.06;5001678;28;20230;-67
2022/08/08 02:35:02;;;;;;;3.67;3.33;;;;;;;15.21;71.09;94380.97;4987345;28;20211;-66
2022/08/08 02:38:21;;;;;;;5.10;2.83;;;;;;;15.14;70.83;94385.50;5008859;28;20227;-66
2022/08/08 02:41:08;;;;;;;3.73;2.67;;;;;;;15.14;70.80;94381.94;4997023;28;20204;-67
2022/08/08 02:44:31;;;;;;;3.27;2.97;;;;;;;15.11;71.40;94391.66;5000727;28;20207;-67
2022/08/08 02:47:43;;;;;;;3.53;2.50;;;;;;;14.92;71.15;94384.88;4990047;28;20204;-67
2022/08/08 02:51:11;;;;;;;4.10;2.80;;;;;;;15.41;69.59;94392.75;5000404;28;20203;-66
2022/08/08 02:54:30;;;;;;;3.03;2.83;;;;;;;15.26;69.93;94391.16;4986818;28;20672;-67
2022/08/08 02:57:51;;;;;;;7.13;3.13;;;;;;;15.40;69.60;94386.38;4993300;28;20196;-67
2022/08/08 03:01:04;;;;;;;3.23;2.93;;;;;;;15.28;70.12;94392.03;5001316;28;20204;-67
2022/08/08 03:04:26;;;;;;;5.13;3.20;;;;;;;15.19;70.24;94394.94;5003892;28;20227;-66
2022/08/08 03:07:51;;;;;;;5.20;3.23;;;;;;;15.28;70.12;94396.94;5004611;28;20203;-67
2022/08/08 03:11:12;;;;;;;7.13;3.27;;;;;;;15.35;69.49;94395.97;5001751;28;20200;-66
2022/08/08 03:14:22;;;;;;;3.70;3.10;;;;;;;15.25;69.87;94387.59;5010955;28;20200;-66
2022/08/08 03:17:17;;;;;;;16.40;3.63;;;;;;;15.27;69.87;94395.44;4998036;28;20200;-66
2022/08/08 03:22:52;;;;;;;4.70;3.00;;;;;;;14.84;71.31;94395.63;5004863;28;20203;-67
2022/08/08 03:25:38;;;;;;;4.37;3.67;;;;;;;14.93;71.28;94385.59;5004716;28;20224;-67
2022/08/08 03:28:40;;;;;;;4.13;2.80;;;;;;;14.79;71.74;94393.91;5002902;28;20201;-67
2022/08/08 03:34:28;;;;;;;6.30;3.43;;;;;;;14.88;71.18;94386.69;5001233;28;20199;-66
2022/08/08 03:37:16;;;;;;;3.70;3.20;;;;;;;14.87;71.28;94377.47;4992742;28;20204;-67
2022/08/08 03:40:03;;;;;;;4.83;3.53;;;;;;;14.66;72.39;94394.47;5001913;28;20204;-67
2022/08/08 03:42:48;;;;;;;6.90;3.03;;;;;;;14.64;72.29;94394.34;5005950;28;20297;-67
2022/08/08 03:45:40;;;;;;;5.07;3.37;;;;;;;14.81;71.48;94391.19;5000639;28;20708;-66
2022/08/08 03:48:24;;;;;;;4.13;3.50;;;;;;;14.85;71.30;94390.72;5006070;28;20211;-67
2022/08/08 03:51:08;;;;;;;3.70;2.97;;;;;;;14.80;71.03;94395.38;5005366;28;20208;-67
2022/08/08 03:53:53;;;;;;;4.40;3.10;;;;;;;14.79;71.10;94396.00;5001678;28;20236;-67
2022/08/08 03:56:37;;;;;;;4.03;2.40;;;;;;;14.75;71.29;94396.47;4998177;28;20196;-66
2022/08/08 03:59:28;;;;;;;5.67;3.00;;;;;;;14.66;71.45;94402.94;4995613;28;20215;-66
2022/08/08 04:02:19;;;;;;;4.57;2.87;;;;;;;14.54;72.06;94399.34;5007021;28;20302;-67
2022/08/08 04:05:05;;;;;;;5.03;3.50;;;;;;;14.57;72.28;94396.03;5002614;28;20331;-66
2022/08/08 04:07:49;;;;;;;5.97;2.93;;;;;;;14.61;72.32;94401.22;5010757;28;20203;-66
2022/08/08 04:10:35;;;;;;;6.80;3.47;;;;;;;14.56;72.65;94393.84;5010297;28;20204;-67
2022/08/08 04:13:21;;;;;;;5.00;3.33;;;;;;;14.51;73.02;94409.00;5005637;28;20212;-66
2022/08/08 04:16:10;;;;;;;3.90;3.47;;;;;;;14.59;72.86;94401.09;5008165;28;20204;-66
2022/08/08 04:18:59;;;;;;;3.50;3.20;;;;;;;14.49;73.28;94406.09;5006175;28;20204;-68
2022/08/08 04:21:43;;;;;;;3.50;3.20;;;;;;;14.46;73.53;94407.28;5002130;28;20204;-67
2022/08/08 04:24:28;;;;;;;5.40;3.27;;;;;;;14.55;73.70;94409.28;5004365;28;20204;-67
2022/08/08 04:27:13;;;;;;;3.63;3.33;;;;;;;14.61;73.43;94417.41;5010877;28;20246;-67
2022/08/08 04:29:57;;;;;;;3.57;3.27;;;;;;;14.58;73.51;94414.44;5012487;28;20203;-67
2022/08/08 04:32:43;;;;;;;3.47;3.17;;;;;;;14.58;73.93;94414.44;5000560;28;20287;-66
2022/08/08 04:35:27;;;;;;;5.63;3.47;;;;;;;14.72;73.64;94427.97;5011116;28;20656;-67
2022/08/08 04:38:12;;;;;;;3.50;2.97;;;;;;;14.76;73.85;94423.31;5004746;28;20275;-66
2022/08/08 04:40:59;;;;;;;4.40;3.50;;;;;;;14.69;74.30;94429.91;5001519;28;20200;-66
2022/08/08 04:43:43;;;;;;;5.23;3.67;;;;;;;14.60;74.60;94433.59;5009778;28;20270;-66
2022/08/08 04:46:31;;;;;;;5.27;3.20;;;;;;;14.74;74.60;94437.31;5011034;28;20317;-67
2022/08/08 04:49:15;;;;;;;8.60;3.40;;;;;;;14.75;74.65;94433.13;5005802;28;20681;-66
2022/08/08 04:52:01;;;;;;;3.33;3.00;;;;;;;14.93;74.03;94436.41;5000250;28;20204;-66
2022/08/08 04:54:45;;;;;;;8.07;3.70;;;;;;;15.11;73.68;94439.63;5006535;28;20200;-66
2022/08/08 04:57:29;;;;;;;5.63;3.17;;;;;;;15.21;73.24;94443.81;5000385;28;20296;-66
2022/08/08 05:00:14;;;;;;;7.00;3.83;;;;;;;15.35;72.22;94441.13;5003202;28;20205;-66
2022/08/08 05:02:58;;;;;;;7.00;3.87;;;;;;;15.30;72.86;94445.06;5006494;28;20207;-67
2022/08/08 05:05:42;;;;;;;7.10;3.80;;;;;;;15.23;73.56;94452.41;5007049;28;20716;-66
2022/08/08 05:08:27;;;;;;;5.80;3.43;;;;;;;15.28;73.91;94450.56;5011092;28;20302;-67
2022/08/08 05:11:12;;;;;;;3.53;3.17;;;;;;;15.50;72.82;94446.28;5005087;28;20571;-66
2022/08/08 05:13:57;;;;;;;3.67;3.30;;;;;;;15.64;72.16;94450.00;5003458;28;20203;-66
2022/08/08 05:16:42;;;;;;;5.63;3.63;;;;;;;15.85;71.47;94456.91;5002803;28;20231;-66
2022/08/08 05:19:27;;;;;;;3.83;3.17;;;;;;;15.78;71.65;94453.72;5000463;28;20204;-67
2022/08/08 05:22:11;;;;;;;9.10;4.07;;;;;;;15.71;72.89;94459.59;4998695;28;20204;-66
2022/08/08 05:25:00;;;;;;;3.20;2.90;;;;;;;15.74;72.27;94450.63;5007504;28;20227;-67
2022/08/08 05:27:45;;;;;;;2.77;2.57;;;;;;;16.02;71.48;94456.50;5000860;28;20561;-68
2022/08/08 05:30:32;;;;;;;3.27;2.90;;;;;;;16.40;70.48;94464.44;5004789;28;20196;-67
2022/08/08 05:33:16;;;;;;;6.60;3.47;;;;;;;16.76;69.58;94459.44;5001408;28;20660;-66
2022/08/08 05:36:01;;;;;;;3.83;2.93;;;;;;;16.89;69.37;94456.66;4994896;28;20200;-67
2022/08/08 05:38:46;;;;;;;3.40;3.10;;;;;;;16.86;69.74;94466.38;5005418;28;20215;-67
2022/08/08 05:41:34;;;;;;;2.70;2.50;;;;;;;17.11;69.47;94468.50;5000754;28;20200;-66
2022/08/08 05:44:28;;;;;;;3.67;3.07;;;;;;;17.16;69.78;94464.53;5001809;28;20755;-66
2022/08/08 05:47:13;;;;;;;3.73;2.70;;;;;;;17.45;69.10;94464.00;5009556;28;20250;-66
2022/08/08 05:49:58;;;;;;;5.93;3.17;;;;;;;17.98;67.61;94473.22;5002434;28;20204;-66
2022/08/08 05:52:46;;;;;;;3.63;2.73;;;;;;;18.06;67.45;94470.81;5001216;28;20208;-66
2022/08/08 05:55:33;;;;;;;4.13;3.03;;;;;;;18.41;66.58;94466.91;4989857;28;20656;-67
2022/08/08 05:58:19;;;;;;;2.50;2.20;;;;;;;17.93;65.89;94465.88;4999326;28;20239;-69
2022/08/08 06:01:03;;;;;;;6.43;2.43;;;;;;;18.02;66.30;94467.75;4993098;28;20200;-65
2022/08/08 06:03:49;;;;;;;3.07;2.40;;;;;;;17.75;66.29;94473.41;4991654;28;20200;-66
2022/08/08 06:06:34;;;;;;;3.00;2.23;;;;;;;17.99;65.95;94477.53;5000249;28;20939;-66
2022/08/08 06:09:24;;;;;;;4.33;2.70;;;;;;;18.04;65.39;94476.38;4999935;28;20207;-68
2022/08/08 06:12:08;;;;;;;3.70;2.43;;;;;;;18.14;65.20;94482.59;5000478;28;20208;-66
2022/08/08 06:14:54;;;;;;;2.43;2.23;;;;;;;18.26;65.31;94484.59;5003979;28;20195;-67
2022/08/08 06:17:40;;;;;;;4.60;2.93;;;;;;;18.17;65.15;94478.50;5003118;28;20286;-66
2022/08/08 06:20:25;;;;;;;6.87;2.30;;;;;;;18.70;64.32;94478.34;4996930;28;20200;-69
2022/08/08 06:23:09;;;;;;;4.97;2.53;;;;;;;18.24;65.04;94485.22;4999390;28;20207;-67
2022/08/08 06:26:05;;;;;;;2.50;2.30;;;;;;;18.30;65.18;94493.31;5006693;28;20242;-65
2022/08/08 06:29:09;;;;;;;4.03;2.90;;;;;;;18.95;64.48;94486.69;5009181;28;20279;-66
2022/08/08 06:31:59;;;;;;;4.60;2.60;;;;;;;19.16;64.11;94491.28;4998975;28;20208;-67
2022/08/08 06:34:46;;;;;;;4.90;2.78;;;;;;;18.42;65.06;94494.66;4991403;28;20200;-66
2022/08/08 06:37:32;;;;;;;3.33;2.60;;;;;;;18.96;64.66;94499.53;4995543;28;20200;-66
2022/08/08 06:40:22;;;;;;;4.77;2.90;;;;;;;19.44;63.08;94503.28;5001809;28;20721;-67
2022/08/08 06:43:08;;;;;;;3.07;2.73;;;;;;;18.73;65.22;94499.81;5000939;28;20204;-68
2022/08/08 06:46:08;;;;;;;5.37;2.90;;;;;;;18.95;64.38;94500.91;5008030;28;20238;-65
2022/08/08 06:48:54;;;;;;;2.73;2.47;;;;;;;19.40;63.15;94503.81;5002437;28;20283;-67
2022/08/08 06:51:39;;;;;;;9.30;2.97;;;;;;;20.19;60.59;94521.69;5000471;28;20204;-67
2022/08/08 06:54:24;;;;;;;3.92;2.92;;;;;;;19.87;61.27;94516.66;4993461;28;20259;-68
2022/08/08 06:57:09;;;;;;;4.57;2.53;;;;;;;19.46;63.52;94514.75;5000947;28;20235;-66
2022/08/08 06:59:54;;;;;;;5.07;3.08;;;;;;;19.97;62.84;94522.81;4995495;28;20211;-69
2022/08/08 07:02:49;;;;;;;5.32;2.88;;;;;;;19.43;62.58;94518.84;5003686;28;20227;-69
2022/08/08 07:05:37;;;;;;;3.45;2.75;;;;;;;20.36;61.31;94534.59;4990434;28;20216;-66
2022/08/08 07:08:28;;;;;;;5.53;2.80;;;;;;;19.78;60.58;94527.66;5006061;28;20196;-66
2022/08/08 07:11:19;;;;;;;3.27;2.70;;;;;;;20.01;61.33;94520.13;4997273;28;20204;-67
2022/08/08 07:14:06;;;;;;;4.57;2.73;;;;;;;19.60;61.50;94526.81;5010094;28;20204;-65
2022/08/08 07:17:10;;;;;;;2.95;2.72;;;;;;;19.78;62.04;94530.50;5006547;28;20208;-68
2022/08/08 07:20:03;;;;;;;3.00;2.28;;;;;;;20.47;60.97;94525.09;5007492;28;20203;-67
2022/08/08 07:23:21;;;;;;;3.22;2.78;;;;;;;20.54;60.40;94538.25;5007426;28;20611;-66
2022/08/08 07:26:09;;;;;;;3.17;2.88;;;;;;;20.71;58.93;94528.28;5010161;28;20349;-67
2022/08/08 07:28:54;;;;;;;3.63;2.95;;;;;;;20.56;60.12;94534.72;5003189;28;20211;-68
2022/08/08 07:31:39;;;;;;;5.68;2.42;;;;;;;20.50;59.94;94532.34;5004630;28;20201;-65
2022/08/08 07:34:24;;;;;;;5.07;3.13;;;;;;;20.67;59.04;94541.63;5003579;28;20207;-63
2022/08/08 07:37:11;;;;;;;3.72;2.75;;;;;;;20.34;59.78;94534.50;5007439;28;20699;-69
2022/08/08 07:39:57;;;;;;;4.13;2.85;;;;;;;20.79;58.52;94545.00;5010926;28;20294;-66
2022/08/08 07:42:45;;;;;;;4.47;2.47;;;;;;;20.11;59.00;94546.22;5012398;28;20212;-65
2022/08/08 07:45:30;;;;;;;4.60;2.42;;;;;;;20.17;60.14;94535.84;4993747;28;20216;-66
2022/08/08 07:48:14;;;;;;;3.08;2.38;;;;;;;20.26;59.22;94548.31;5009711;28;20212;-66
2022/08/08 07:51:01;;;;;;;3.42;2.72;;;;;;;21.24;58.45;94545.50;5007495;28;20199;-67
2022/08/08 07:53:50;;;;;;;3.67;3.10;;;;;;;21.44;58.20;94553.41;5013602;28;20191;-67
2022/08/08 07:56:54;;;;;;;2.58;2.38;;;;;;;22.17;54.99;94557.78;5014106;28;20199;-66
2022/08/08 08:00:10;;;;;;;2.95;2.70;;;;;;;21.65;56.92;94561.41;5012090;28;20286;-67
2022/08/08 08:03:08;;;;;;;2.95;2.70;;;;;;;21.57;55.84;94556.13;4999927;28;20230;-65
2022/08/08 08:05:54;;;;;;;2.78;2.15;;;;;;;21.16;56.93;94558.69;5012873;28;20583;-66
2022/08/08 08:09:11;;;;;;;2.88;2.25;;;;;;;21.52;56.49;94554.50;5012027;28;20204;-66
2022/08/08 08:11:55;;;;;;;3.85;2.40;;;;;;;21.55;55.68;94563.84;5008064;28;20218;-66
2022/08/08 08:15:02;;;;;;;3.08;2.08;;;;;;;21.47;55.70;94557.84;5000295;28;20212;-67
2022/08/08 08:17:48;;;;;;;2.60;2.30;;;;;;;21.08;56.86;94558.31;4993344;28;20254;-65
2022/08/08 08:20:35;;;;;;;7.13;2.25;;;;;;;21.48;55.05;94565.72;5011180;28;20672;-66
2022/08/08 08:23:22;;;;;;;2.53;2.20;;;;;;;21.54;55.33;94571.66;5009621;28;20208;-66
2022/08/08 08:26:06;;;;;;;2.78;2.15;;;;;;;21.84;54.92;94575.03;5010192;28;20227;-65
2022/08/08 08:28:52;;;;;;;2.85;2.10;;;;;;;22.17;52.74;94572.06;5003086;28;20679;-65
2022/08/08 08:31:37;;;;;;;6.07;2.30;;;;;;;21.29;53.52;94563.53;5001478;28;20200;-66
2022/08/08 08:34:21;;;;;;;3.63;2.40;;;;;;;21.92;54.66;94566.75;5002814;28;20279;-68
2022/08/08 08:37:06;;;;;;;2.58;2.22;;;;;;;22.75;53.04;94564.25;5007986;28;20203;-65
2022/08/08 08:39:50;;;;;;;5.72;2.28;;;;;;;22.21;51.74;94567.91;5009542;28;20203;-66
2022/08/08 08:42:35;;;;;;;2.78;2.40;;;;;;;22.07;53.78;94565.97;5010057;28;20200;-65
2022/08/08 08:45:20;;;;;;;2.67;2.05;;;;;;;22.63;51.30;94569.47;5001813;28;20293;-65
2022/08/08 08:48:05;;;;;;;5.30;2.20;;;;;;;22.63;52.21;94568.75;5009201;28;20196;-65
2022/08/08 08:50:54;;;;;;;3.17;2.10;;;;;;;22.30;52.47;94576.09;5010715;28;20203;-67
2022/08/08 08:53:51;;;;;;;3.08;1.92;;;;;;;22.61;50.42;94569.41;5013299;28;20231;-67
2022/08/08 08:56:39;;;;;;;2.38;2.17;;;;;;;22.47;51.93;94566.75;4996579;28;20275;-67
2022/08/08 08:59:33;;;;;;;2.53;2.15;;;;;;;22.49;52.19;94574.66;5023533;28;20677;-67
2022/08/08 09:02:22;;;;;;;2.92;1.95;;;;;;;21.77;51.10;94576.91;5005709;28;20192;-67
2022/08/08 09:05:11;;;;;;;2.42;2.17;;;;;;;22.44;50.44;94573.06;5001941;28;20909;-65
2022/08/08 09:08:01;;;;;;;5.15;2.15;;;;;;;22.08;50.58;94583.81;5011809;28;20235;-67
2022/08/08 09:10:46;;;;;;;5.38;2.65;;;;;;;22.30;51.19;94576.09;4997393;28;20202;-67
2022/08/08 09:13:31;;;;;;;2.38;2.17;;;;;;;22.22;49.62;94577.94;5004704;28;20290;-68
2022/08/08 09:16:16;;;;;;;3.95;2.38;;;;;;;22.25;50.64;94579.47;5009533;28;20204;-67
2022/08/08 09:19:01;;;;;;;2.70;2.38;;;;;;;22.67;50.14;94572.47;5006931;28;20339;-69
2022/08/08 09:21:46;;;;;;;3.13;2.10;;;;;;;22.82;49.97;94571.63;5005985;28;20616;-67
2022/08/08 09:24:34;;;;;;;3.25;2.28;;;;;;;22.83;49.16;94570.25;5009739;28;20385;-65
2022/08/08 09:27:20;;;;;;;2.80;2.30;;;;;;;23.23;50.86;94578.75;5011496;28;20204;-69
2022/08/08 09:30:08;;;;;;;3.80;2.05;;;;;;;23.14;47.75;94579.91;5008789;28;20230;-64
2022/08/08 09:32:56;;;;;;;6.45;2.00;;;;;;;23.31;48.31;94573.31;4996997;28;20231;-65
2022/08/08 09:35:45;;;;;;;2.13;1.77;;;;;;;23.01;49.14;94575.13;5002451;28;20567;-66
2022/08/08 09:38:51;;;;;;;1.80;1.70;;;;;;;23.17;48.40;94581.41;5007051;28;20200;-66
2022/08/08 09:41:40;;;;;;;4.07;2.10;;;;;;;22.98;47.69;94583.63;5005231;28;20195;-66
2022/08/08 09:44:56;;;;;;;2.92;1.90;;;;;;;23.09;48.02;94586.84;4995680;28;20259;-66
2022/08/08 09:47:42;;;;;;;3.03;1.80;;;;;;;23.28;47.67;94583.22;5008645;28;20204;-67
2022/08/08 09:50:29;;;;;;;3.15;1.92;;;;;;;24.53;47.09;94577.94;4999683;28;20203;-65
2022/08/08 09:53:19;;;;;;;1.83;1.60;;;;;;;24.07;45.45;94574.41;5007478;28;20219;-68
2022/08/08 09:56:06;;;;;;;3.13;1.90;;;;;;;24.44;45.25;94574.09;5001180;28;20289;-66
2022/08/08 09:59:05;;;;;;;4.53;1.90;;;;;;;24.91;46.39;94569.75;5001497;28;20200;-66
2022/08/08 10:01:51;;;;;;;2.10;1.70;;;;;;;23.63;45.84;94568.72;4996637;28;20201;-68
2022/08/08 10:04:38;;;;;;;6.32;1.70;;;;;;;24.22;47.59;94567.72;5009237;28;20223;-66
2022/08/08 10:07:22;;;;;;;4.30;2.17;;;;;;;23.35;47.33;94571.31;5001862;28;20207;-65
2022/08/08 10:10:07;;;;;;;3.03;1.90;;;;;;;23.98;46.05;94569.81;5004341;28;20208;-69
2022/08/08 10:12:51;;;;;;;3.53;2.03;;;;;;;23.59;46.58;94570.69;5008539;28;20212;-65
2022/08/08 10:15:36;;;;;;;3.17;2.25;;;;;;;23.66;46.94;94566.63;5002107;28;20204;-65
2022/08/08 10:18:32;;;;;;;4.97;1.85;;;;;;;23.37;46.74;94570.66;5005032;28;20201;-66
2022/08/08 10:21:19;;;;;;;5.35;2.10;;;;;;;24.52;45.72;94571.50;5000137;28;20294;-65
2022/08/08 10:24:08;;;;;;;3.20;1.50;;;;;;;23.70;46.02;94558.91;5000590;28;20204;-65
2022/08/08 10:27:05;;;;;;;5.32;1.77;;;;;;;24.72;45.19;94568.47;5002297;28;20223;-65
2022/08/08 10:30:00;;;;;;;2.70;1.50;;;;;;;23.83;44.96;94551.44;5003721;28;20669;-68
2022/08/08 10:32:50;;;;;;;2.70;1.58;;;;;;;23.77;46.20;94557.72;4996203;28;20204;-67
2022/08/08 10:35:34;;;;;;;2.78;1.42;;;;;;;24.96;44.39;94557.72;5001251;28;20283;-66
2022/08/08 10:38:19;;;;;;;3.70;2.05;;;;;;;25.71;43.20;94564.69;5004158;28;20195;-65
2022/08/08 10:41:04;;;;;;;2.67;1.73;;;;;;;25.91;41.51;94565.19;5011416;28;20208;-67
2022/08/08 10:43:50;;;;;;;4.18;1.60;;;;;;;25.45;41.89;94561.13;5005577;28;20207;-66
2022/08/08 10:46:34;;;;;;;3.15;1.52;;;;;;;23.86;44.85;94563.69;5008730;28;20230;-67
2022/08/08 10:49:19;;;;;;;2.70;1.67;;;;;;;23.47;45.29;94567.44;5005306;28;20208;-69
2022/08/08 10:52:03;;;;;;;3.40;1.60;;;;;;;23.41;45.59;94567.94;5001367;28;20644;-68
2022/08/08 10:55:03;;;;;;;3.58;1.35;;;;;;;23.87;44.66;94568.03;5005067;28;20219;-64
2022/08/08 10:57:48;;;;;;;2.30;1.85;;;;;;;24.80;42.77;94565.13;4998139;28;20203;-71
2022/08/08 11:00:34;;;;;;;4.18;1.38;;;;;;;24.06;41.94;94562.22;5003680;28;20203;-67
2022/08/08 11:03:18;;;;;;;1.38;1.17;;;;;;;24.76;43.05;94560.00;5002988;28;20197;-67
2022/08/08 11:06:02;;;;;;;4.40;1.40;;;;;;;25.83;40.91;94565.00;5007527;28;20219;-67
2022/08/08 11:08:46;;;;;;;3.47;1.40;;;;;;;24.92;40.90;94559.75;5005284;28;20208;-68
2022/08/08 11:11:44;;;;;;;3.63;1.50;;;;;;;25.67;39.56;94558.88;5001911;28;20200;-67
2022/08/08 11:14:28;;;;;;;6.22;1.63;;;;;;;24.33;42.05;94555.16;5006217;28;20216;-67
2022/08/08 11:17:12;;;;;;;3.60;1.90;;;;;;;25.27;42.03;94558.53;5003322;28;20207;-67
2022/08/08 11:19:58;;;;;;;2.83;1.40;;;;;;;24.53;41.25;94550.03;5007547;28;20261;-67
2022/08/08 11:22:48;;;;;;;1.58;1.45;;;;;;;25.79;42.60;94553.44;5000405;28;20219;-67
2022/08/08 11:25:33;;;;;;;2.25;1.40;;;;;;;25.80;41.81;94549.13;5004649;28;20643;-67
2022/08/08 11:28:24;;;;;;;4.18;1.83;;;;;;;25.16;42.89;94554.66;4997430;28;20760;-66
2022/08/08 11:31:13;;;;;;;3.55;1.60;;;;;;;25.49;41.35;94549.78;5014560;28;20207;-66
2022/08/08 11:33:59;;;;;;;1.30;1.20;;;;;;;24.60;42.16;94550.94;4994233;28;20196;-67
2022/08/08 11:36:43;;;;;;;3.03;1.58;;;;;;;24.45;43.05;94549.06;5007161;28;20609;-69
2022/08/08 11:39:30;;;;;;;2.97;1.65;;;;;;;25.21;43.63;94539.03;4998962;28;20200;-66
2022/08/08 11:42:16;;;;;;;2.83;1.50;;;;;;;25.15;42.75;94538.88;5000476;28;20204;-66
2022/08/08 11:45:01;;;;;;;2.28;1.48;;;;;;;25.43;43.13;94546.75;5003527;28;20665;-65
2022/08/08 11:47:47;;;;;;;2.42;1.10;;;;;;;24.58;41.86;94540.16;5008274;28;20583;-68
2022/08/08 11:50:32;;;;;;;2.30;1.45;;;;;;;26.44;39.85;94532.66;5006371;28;20286;-66
2022/08/08 11:53:18;;;;;;;3.95;1.48;;;;;;;26.25;42.13;94532.94;5000325;28;20203;-66
2022/08/08 11:56:02;;;;;;;1.83;1.25;;;;;;;25.67;41.53;94538.78;5004369;28;20203;-70
2022/08/08 11:58:47;;;;;;;3.30;1.52;;;;;;;25.44;42.62;94530.97;5001872;28;20204;-66
2022/08/08 12:01:31;;;;;;;1.80;1.40;;;;;;;25.77;43.82;94536.88;5002895;28;20203;-68
2022/08/08 12:04:15;;;;;;;3.08;1.63;;;;;;;25.21;41.57;94539.03;5003502;28;20203;-67
2022/08/08 12:07:06;;;;;;;3.63;1.40;;;;;;;25.95;39.35;94530.81;5010558;28;20211;-66
2022/08/08 12:09:53;;;;;;;6.07;1.77;;;;;;;24.49;43.09;94532.72;4999795;28;20204;-67
2022/08/08 12:12:41;;;;;;;2.03;1.60;;;;;;;24.22;42.40;94527.63;5001010;28;20211;-67
2022/08/08 12:15:30;;;;;;;2.05;1.73;;;;;;;24.23;43.43;94531.97;5006938;28;20203;-66
2022/08/08 12:18:25;;;;;;;4.60;1.90;;;;;;;24.85;43.92;94533.03;5000270;28;20200;-66
2022/08/08 12:21:20;;;;;;;2.47;1.30;;;;;;;25.16;43.21;94534.59;4999512;28;20192;-66
2022/08/08 12:24:07;;;;;;;2.25;1.60;;;;;;;25.05;42.87;94518.53;5013605;28;20294;-69
2022/08/08 12:26:53;;;;;;;3.35;1.70;;;;;;;25.31;41.56;94530.66;5013772;28;20227;-67
2022/08/08 12:29:37;;;;;;;1.70;1.50;;;;;;;25.17;42.32;94521.72;5012738;28;20265;-68
2022/08/08 12:32:21;;;;;;;3.47;1.52;;;;;;;25.20;43.10;94526.09;5000988;28;20671;-66
2022/08/08 12:35:05;;;;;;;2.17;1.65;;;;;;;25.44;43.67;94530.97;5000626;28;20215;-66
2022/08/08 12:38:06;;;;;;;3.38;1.40;;;;;;;24.41;43.38;94532.50;5008959;28;20824;-69
2022/08/08 12:40:52;;;;;;;5.00;2.00;;;;;;;24.33;43.72;94523.66;5010162;28;20247;-68
2022/08/08 12:43:36;;;;;;;1.60;1.50;;;;;;;24.36;42.54;94519.47;5007578;28;20609;-66
2022/08/08 12:46:21;;;;;;;2.22;1.60;;;;;;;25.08;41.95;94513.56;5009044;28;20251;-66
2022/08/08 12:49:05;;;;;;;2.55;1.40;;;;;;;25.34;40.33;94526.47;5013528;28;20278;-67
2022/08/08 12:51:49;;;;;;;2.53;1.50;;;;;;;25.73;41.35;94527.44;5013027;28;20258;-67
2022/08/08 12:54:36;;;;;;;4.65;1.38;;;;;;;25.47;40.28;94518.16;5006728;28;20239;-67
2022/08/08 12:57:23;;;;;;;5.68;1.42;;;;;;;24.97;41.67;94515.44;5005902;28;20985;-66
2022/08/08 13:00:08;;;;;;;2.50;1.55;;;;;;;25.81;40.59;94516.13;5000612;28;20286;-65
2022/08/08 13:02:57;;;;;;;1.45;1.33;;;;;;;24.97;42.29;94506.84;5005972;28;20203;-67
2022/08/08 13:05:41;;;;;;;2.78;1.52;;;;;;;24.93;42.28;94509.59;5013284;28;20281;-66
2022/08/08 13:08:25;;;;;;;1.30;1.02;;;;;;;24.74;42.99;94508.34;5013018;28;20212;-65
2022/08/08 13:11:32;;;;;;;3.90;1.60;;;;;;;25.28;41.99;94511.97;5004635;28;20550;-67
2022/08/08 13:14:16;;;;;;;1.75;1.23;;;;;;;25.26;42.18;94516.91;5001307;28;20204;-68
2022/08/08 13:17:00;;;;;;;2.83;1.30;;;;;;;26.91;38.00;94502.00;4998914;28;20219;-66
2022/08/08 13:19:45;;;;;;;7.22;1.60;;;;;;;26.20;41.51;94506.25;5002930;28;20196;-68
2022/08/08 13:22:35;;;;;;;4.55;1.30;;;;;;;26.02;40.24;94503.72;5006354;28;20288;-67
2022/08/08 13:25:23;;;;;;;1.45;1.35;;;;;;;25.87;41.09;94501.91;5008328;28;20274;-67
2022/08/08 13:28:07;;;;;;;3.53;1.40;;;;;;;26.00;42.65;94497.19;5012221;28;20286;-67
2022/08/08 13:30:53;;;;;;;1.73;1.20;;;;;;;27.18;39.29;94503.22;5005299;28;20214;-66
2022/08/08 13:33:39;;;;;;;1.55;1.40;;;;;;;25.23;41.65;94496.06;5011888;28;20196;-66
2022/08/08 13:36:23;;;;;;;2.40;1.60;;;;;;;25.84;42.32;94497.56;5005549;28;20195;-68
2022/08/08 13:39:07;;;;;;;1.67;1.30;;;;;;;26.06;40.19;94495.16;5008860;28;20282;-66